This is the latest recevied weather packets stored in our database for station/object KB1YYC. If no packets are shown the sender has not sent any weather packets the latest 10 day(s).
| Time | Temp. | Humidity | Pressure | Rain* | Wind** | Luminosity | Snow |
|---|---|---|---|---|---|---|---|
| 1778166599 | 13.89° C | 58% | 1006.6 hPa | 0 mm | - | 172 W/m² | - |
| 1778166296 | 14.44° C | 56% | 1006.6 hPa | 0 mm | - | 140 W/m² | - |
| 1778165992 | 13.89° C | 58% | 1006.4 hPa | 0 mm | - | 195 W/m² | - |
| 1778165687 | 15.56° C | 53% | 1006.5 hPa | 0 mm | - | 266 W/m² | - |
| 1778165385 | 15.56° C | 52% | 1006.4 hPa | 0 mm | - | 711 W/m² | - |
| 1778165081 | 15.56° C | 51% | 1006.5 hPa | 0 mm | - | 724 W/m² | - |
| 1778164778 | 15.56° C | 49% | 1006.4 hPa | 0 mm | - | 726 W/m² | - |
| 1778164476 | 15° C | 52% | 1006.4 hPa | 0 mm | - | 725 W/m² | - |
| 1778164172 | 15° C | 52% | 1006.3 hPa | 0 mm | - | 691 W/m² | - |
| 1778163868 | 15.56° C | 54% | 1006.3 hPa | 0 mm | - | 683 W/m² | - |
| 1778163566 | 15° C | 56% | 1006.5 hPa | 0 mm | - | 674 W/m² | - |
| 1778163262 | 14.44° C | 57% | 1006.7 hPa | 0 mm | - | 666 W/m² | - |
| 1778162959 | 14.44° C | 58% | 1006.6 hPa | 0 mm | - | 655 W/m² | - |
| 1778162655 | 14.44° C | 58% | 1006.8 hPa | 0 mm | - | 644 W/m² | - |
| 1778162353 | 13.89° C | 60% | 1006.6 hPa | 0 mm | - | 633 W/m² | - |
| 1778162049 | 13.89° C | 59% | 1006.7 hPa | 0 mm | - | 624 W/m² | - |
| 1778161747 | 13.89° C | 60% | 1006.7 hPa | 0 mm | - | 614 W/m² | - |
| 1778161443 | 13.89° C | 60% | 1006.7 hPa | 0 mm | - | 604 W/m² | - |
| 1778161139 | 13.89° C | 60% | 1006.8 hPa | 0 mm | - | 591 W/m² | - |
| 1778160835 | 13.33° C | 64% | 1006.9 hPa | 0 mm | - | 580 W/m² | - |
| 1778160534 | 13.33° C | 62% | 1007 hPa | 0 mm | - | 568 W/m² | - |
| 1778160230 | 13.33° C | 64% | 1006.9 hPa | 0 mm | - | 557 W/m² | - |
| 1778159927 | 12.78° C | 65% | 1007.2 hPa | 0 mm | - | 541 W/m² | - |
| 1778159624 | 13.33° C | 67% | 1006.9 hPa | 0 mm | - | 528 W/m² | - |
| 1778159321 | 12.78° C | 65% | 1007.2 hPa | 0 mm | - | 515 W/m² | - |
* Rain latest hour (hover to see other rain measurements)
** Current wind speed in m/s (hover to see current wind gust speed)